createdAt,value
2018-09-29T00:00:47.086Z,6.50
2018-09-29T00:03:15.387Z,6.10
2018-09-29T00:05:43.419Z,11.13
2018-09-29T00:08:11.572Z,8.70
2018-09-29T00:10:39.733Z,9.83
2018-09-29T00:13:07.816Z,8.30
2018-09-29T00:15:36.128Z,6.77
2018-09-29T00:18:04.279Z,7.80
2018-09-29T00:20:32.678Z,6.27
2018-09-29T00:23:00.843Z,8.23
2018-09-29T00:25:29.023Z,8.10
2018-09-29T00:27:57.324Z,11.87
2018-09-29T00:30:25.961Z,10.30
2018-09-29T00:32:54.079Z,7.57
2018-09-29T00:35:22.203Z,9.00
2018-09-29T00:37:50.366Z,7.73
2018-09-29T00:40:18.643Z,7.93
2018-09-29T00:42:46.848Z,6.57
2018-09-29T00:45:14.939Z,6.97
2018-09-29T00:47:47.524Z,6.23
2018-09-29T00:50:15.626Z,7.40
2018-09-29T00:52:44.149Z,8.00
2018-09-29T00:55:12.388Z,7.50
2018-09-29T00:57:40.576Z,7.33
2018-09-29T01:00:08.867Z,8.20
2018-09-29T01:02:37.027Z,7.93
2018-09-29T01:05:05.154Z,7.13
2018-09-29T01:07:33.468Z,8.60
2018-09-29T01:10:01.672Z,9.37
2018-09-29T01:12:30.003Z,9.10
2018-09-29T01:14:58.675Z,6.07
2018-09-29T01:17:26.757Z,12.33
2018-09-29T01:19:54.880Z,6.60
2018-09-29T01:22:23.837Z,11.47
2018-09-29T01:24:51.956Z,9.70
2018-09-29T01:27:20.300Z,12.73
2018-09-29T01:29:48.476Z,8.70
2018-09-29T01:32:16.607Z,7.40
2018-09-29T01:34:45.201Z,8.17
2018-09-29T01:37:13.303Z,7.43
2018-09-29T01:39:41.561Z,8.00
2018-09-29T01:42:09.867Z,8.67
2018-09-29T01:44:37.985Z,9.53
2018-09-29T01:47:06.447Z,8.40
2018-09-29T01:49:34.532Z,9.57
2018-09-29T01:52:02.680Z,8.03
2018-09-29T01:54:31.267Z,14.97
2018-09-29T01:56:59.363Z,7.70
2018-09-29T01:59:27.684Z,7.30
2018-09-29T02:01:55.823Z,9.60
2018-09-29T02:04:24.999Z,8.67
2018-09-29T02:06:53.083Z,8.40
2018-09-29T02:09:22.000Z,7.57
2018-09-29T02:11:50.412Z,8.30
2018-09-29T02:14:18.715Z,7.80
2018-09-29T02:16:46.899Z,8.87
2018-09-29T02:19:14.967Z,6.23
2018-09-29T02:21:43.083Z,12.13
2018-09-29T02:24:11.179Z,5.03
2018-09-29T02:26:39.395Z,9.37
2018-09-29T02:29:07.551Z,9.60
2018-09-29T02:31:35.880Z,8.10
2018-09-29T02:34:04.138Z,10.93
2018-09-29T02:36:32.358Z,7.30
2018-09-29T02:39:04.509Z,9.83
2018-09-29T02:41:32.885Z,7.33
2018-09-29T02:44:02.257Z,8.60
2018-09-29T02:46:30.335Z,8.10
2018-09-29T02:48:58.887Z,7.23
2018-09-29T02:51:26.961Z,8.37
2018-09-29T02:53:55.308Z,10.57
2018-09-29T02:56:23.398Z,11.07
2018-09-29T02:58:52.095Z,8.43
2018-09-29T03:01:20.942Z,5.03
2018-09-29T03:03:49.307Z,6.47
2018-09-29T03:06:17.685Z,8.33
2018-09-29T03:08:46.148Z,8.90
2018-09-29T03:11:14.574Z,7.47
2018-09-29T03:13:43.629Z,8.97
2018-09-29T03:16:12.256Z,8.80
2018-09-29T03:18:40.948Z,6.33
2018-09-29T03:21:09.315Z,5.73
2018-09-29T03:23:38.392Z,8.17
2018-09-29T03:26:06.798Z,8.03
2018-09-29T03:28:35.177Z,9.77
2018-09-29T03:31:03.656Z,9.03
2018-09-29T03:33:32.220Z,7.90
2018-09-29T03:36:00.872Z,7.77
2018-09-29T03:38:29.299Z,9.43
2018-09-29T03:40:58.247Z,6.30
2018-09-29T03:43:27.388Z,8.60
2018-09-29T03:45:56.108Z,9.37
2018-09-29T03:48:24.484Z,6.10
2018-09-29T03:50:52.888Z,8.67
2018-09-29T03:53:21.945Z,9.13
2018-09-29T03:55:50.316Z,6.23
2018-09-29T03:58:19.804Z,7.80
2018-09-29T04:00:48.187Z,8.67
2018-09-29T04:03:17.121Z,7.73
2018-09-29T04:05:45.684Z,6.90
2018-09-29T04:08:14.183Z,7.83
2018-09-29T04:10:42.892Z,8.73
2018-09-29T04:13:11.299Z,7.97
2018-09-29T04:15:39.807Z,6.87
2018-09-29T04:18:08.189Z,11.40
2018-09-29T04:20:36.775Z,7.13
2018-09-29T04:23:05.284Z,8.13
2018-09-29T04:25:33.935Z,8.00
2018-09-29T04:28:02.380Z,6.13
2018-09-29T04:30:31.585Z,9.40
2018-09-29T04:33:00.408Z,9.27
2018-09-29T04:35:28.972Z,7.60
2018-09-29T04:37:57.464Z,10.60
2018-09-29T04:40:25.901Z,8.67
2018-09-29T04:42:54.308Z,8.30
2018-09-29T04:45:22.816Z,7.67
2018-09-29T04:47:52.116Z,8.57
2018-09-29T04:50:20.547Z,7.23
2018-09-29T04:52:50.658Z,8.93
2018-09-29T04:55:19.077Z,8.67
2018-09-29T04:57:48.055Z,8.73
2018-09-29T05:00:16.468Z,8.97
2018-09-29T05:02:44.843Z,11.90
2018-09-29T05:05:13.212Z,9.00
2018-09-29T05:07:41.584Z,8.23
2018-09-29T05:10:10.406Z,11.87
2018-09-29T05:12:38.753Z,7.87
2018-09-29T05:15:07.163Z,8.40
2018-09-29T05:17:35.540Z,7.03
2018-09-29T05:20:04.024Z,6.83
2018-09-29T05:22:32.504Z,11.00
2018-09-29T05:25:00.972Z,7.93
2018-09-29T05:27:29.368Z,8.30
2018-09-29T05:29:57.750Z,6.67
2018-09-29T05:32:26.380Z,7.03
2018-09-29T05:34:55.584Z,6.67
2018-09-29T05:37:24.537Z,5.00
2018-09-29T05:39:53.105Z,12.27
2018-09-29T05:42:21.463Z,6.17
2018-09-29T05:44:49.829Z,10.20
2018-09-29T05:47:18.867Z,5.77
2018-09-29T05:49:47.323Z,5.50
2018-09-29T05:52:16.249Z,10.47
2018-09-29T05:54:44.789Z,7.40
2018-09-29T05:57:13.677Z,6.10
2018-09-29T05:59:42.646Z,6.80
2018-09-29T06:02:11.197Z,6.60
2018-09-29T06:04:39.719Z,7.17
2018-09-29T06:07:08.358Z,6.60
2018-09-29T06:09:36.906Z,7.97
2018-09-29T06:12:05.381Z,6.97
2018-09-29T06:14:33.816Z,9.37
2018-09-29T06:17:02.308Z,8.80
2018-09-29T06:19:30.871Z,7.77
2018-09-29T06:21:59.410Z,7.83
2018-09-29T06:24:27.873Z,8.27
2018-09-29T06:26:56.377Z,5.20
2018-09-29T06:29:24.836Z,8.60
2018-09-29T06:31:53.251Z,11.07
2018-09-29T06:34:21.644Z,7.47
2018-09-29T06:36:50.698Z,7.63
2018-09-29T06:39:19.086Z,7.73
2018-09-29T06:41:48.155Z,8.33
2018-09-29T06:44:16.563Z,11.83
2018-09-29T06:46:45.568Z,11.13
2018-09-29T06:49:13.980Z,9.23
2018-09-29T06:51:42.619Z,8.63
2018-09-29T06:54:11.513Z,6.67
2018-09-29T06:56:40.129Z,7.77
2018-09-29T06:59:08.736Z,7.73
2018-09-29T07:01:37.120Z,7.57
2018-09-29T07:04:05.631Z,6.37
2018-09-29T07:06:34.009Z,5.25
2018-09-29T07:09:03.116Z,5.97
2018-09-29T07:11:32.301Z,6.80
2018-09-29T07:14:00.828Z,5.20
2018-09-29T07:16:29.421Z,7.15
2018-09-29T07:18:57.796Z,6.78
2018-09-29T07:21:26.000Z,5.45
2018-09-29T07:23:54.708Z,6.20
2018-09-29T07:26:23.313Z,5.60
2018-09-29T07:28:51.463Z,4.17
2018-09-29T07:31:19.862Z,5.00
2018-09-29T07:33:49.223Z,5.33
2018-09-29T07:36:18.325Z,4.75
2018-09-29T07:38:46.714Z,3.92
2018-09-29T07:41:14.816Z,5.45
2018-09-29T07:43:42.920Z,7.92
2018-09-29T07:46:11.195Z,10.93
2018-09-29T07:48:39.279Z,6.45
2018-09-29T07:51:07.608Z,5.40
2018-09-29T07:53:35.764Z,6.03
2018-09-29T07:56:04.264Z,7.72
2018-09-29T07:58:32.404Z,6.80
2018-09-29T08:01:00.751Z,8.95
2018-09-29T08:03:28.924Z,5.40
2018-09-29T08:05:57.077Z,8.33
2018-09-29T08:08:25.163Z,7.60
2018-09-29T08:10:53.567Z,6.05
2018-09-29T08:13:21.727Z,6.90
2018-09-29T08:15:49.999Z,7.42
2018-09-29T08:18:18.088Z,5.17
2018-09-29T08:20:46.305Z,6.03
2018-09-29T08:23:14.514Z,6.40
2018-09-29T08:25:43.401Z,7.40
2018-09-29T08:28:11.487Z,6.92
2018-09-29T08:30:39.591Z,7.40
2018-09-29T08:33:07.667Z,5.00
2018-09-29T08:35:35.948Z,8.25
2018-09-29T08:38:04.292Z,8.23
2018-09-29T08:40:32.600Z,8.15
2018-09-29T08:43:00.880Z,8.23
2018-09-29T08:45:29.032Z,6.40
2018-09-29T08:47:57.156Z,5.58
2018-09-29T08:50:25.373Z,6.30
2018-09-29T08:52:53.666Z,6.72
2018-09-29T08:55:21.940Z,7.67
2018-09-29T08:57:50.030Z,6.37
2018-09-29T09:00:18.756Z,5.65
2018-09-29T09:02:46.845Z,8.30
2018-09-29T09:05:15.128Z,6.58
2018-09-29T09:07:43.284Z,7.10
2018-09-29T09:10:11.455Z,5.15
2018-09-29T09:12:39.631Z,5.87
2018-09-29T09:15:07.841Z,6.58
2018-09-29T09:17:35.952Z,4.78
2018-09-29T09:20:04.083Z,6.12
2018-09-29T09:22:32.398Z,7.70
2018-09-29T09:25:00.677Z,7.12
2018-09-29T09:27:28.756Z,6.10
2018-09-29T09:29:56.945Z,4.97
2018-09-29T09:32:25.872Z,5.45
2018-09-29T09:34:54.083Z,5.50
2018-09-29T09:37:22.264Z,7.53
2018-09-29T09:39:50.528Z,7.62
2018-09-29T09:42:18.860Z,6.70
2018-09-29T09:44:47.004Z,5.37
2018-09-29T09:47:15.203Z,5.10
2018-09-29T09:49:43.421Z,8.53
2018-09-29T09:52:11.628Z,7.15
2018-09-29T09:54:39.865Z,7.10
2018-09-29T09:57:08.080Z,4.80
2018-09-29T09:59:36.272Z,4.37
2018-09-29T10:02:09.691Z,4.60
2018-09-29T10:04:37.784Z,8.75
2018-09-29T10:07:07.171Z,7.62
2018-09-29T10:09:35.875Z,6.33
2018-09-29T10:12:04.105Z,4.95
2018-09-29T10:14:32.769Z,5.22
2018-09-29T10:17:01.023Z,5.85
2018-09-29T10:19:29.191Z,5.30
2018-09-29T10:21:57.401Z,6.47
2018-09-29T10:24:26.089Z,5.65
2018-09-29T10:26:54.362Z,4.45
2018-09-29T10:29:22.575Z,6.03
2018-09-29T10:31:52.532Z,3.98
2018-09-29T10:34:20.787Z,4.47
2018-09-29T10:36:49.095Z,6.60
2018-09-29T10:39:17.208Z,6.92
2018-09-29T10:41:45.355Z,5.42
2018-09-29T10:44:13.572Z,5.75
2018-09-29T10:46:42.541Z,6.90
2018-09-29T10:49:10.696Z,4.00
2018-09-29T10:51:38.900Z,6.65
2018-09-29T10:54:07.762Z,4.03
2018-09-29T10:56:35.848Z,5.97
2018-09-29T10:59:03.959Z,4.05
2018-09-29T11:01:32.147Z,6.72
2018-09-29T11:04:00.325Z,5.80
2018-09-29T11:06:28.557Z,5.53
2018-09-29T11:08:56.791Z,5.87
2018-09-29T11:11:24.895Z,4.08
2018-09-29T11:13:53.054Z,3.22
2018-09-29T11:16:21.230Z,4.22
2018-09-29T11:18:49.402Z,2.70
2018-09-29T11:21:17.595Z,4.30
2018-09-29T11:23:45.736Z,4.67
2018-09-29T11:26:13.822Z,6.25
2018-09-29T11:28:42.000Z,3.55
2018-09-29T11:31:10.113Z,3.35
2018-09-29T11:33:38.827Z,3.58
2018-09-29T11:36:06.954Z,4.90
2018-09-29T11:38:35.078Z,5.55
2018-09-29T11:41:03.283Z,6.25
2018-09-29T11:43:31.420Z,3.50
2018-09-29T11:45:59.800Z,4.08
2018-09-29T11:48:28.006Z,3.83
2018-09-29T11:50:56.098Z,3.30
2018-09-29T11:53:24.690Z,4.80
2018-09-29T11:55:52.823Z,3.62
2018-09-29T11:58:21.092Z,4.00
2018-09-29T12:00:49.403Z,4.17
2018-09-29T12:03:17.563Z,3.45
2018-09-29T12:05:45.805Z,6.03
2018-09-29T12:08:13.965Z,5.45
2018-09-29T12:10:42.068Z,4.17
2018-09-29T12:13:10.226Z,4.50
2018-09-29T12:15:38.552Z,3.80
2018-09-29T12:18:06.664Z,5.92
2018-09-29T12:20:34.812Z,4.05
2018-09-29T12:23:02.908Z,4.37
2018-09-29T12:25:31.017Z,6.60
2018-09-29T12:27:59.119Z,5.60
2018-09-29T12:30:27.283Z,4.35
2018-09-29T12:32:55.446Z,5.40
2018-09-29T12:35:23.717Z,3.72
2018-09-29T12:37:51.977Z,3.77
2018-09-29T12:40:20.080Z,4.75
2018-09-29T12:42:48.154Z,3.42
2018-09-29T12:45:16.531Z,3.75
2018-09-29T12:47:44.776Z,3.05
2018-09-29T12:50:12.940Z,3.52
2018-09-29T12:52:41.636Z,3.12
2018-09-29T12:55:09.745Z,2.20
2018-09-29T12:57:37.927Z,4.00
2018-09-29T13:00:06.515Z,6.50
2018-09-29T13:02:34.659Z,2.30
2018-09-29T13:05:02.984Z,2.30
2018-09-29T13:07:31.091Z,3.37
2018-09-29T13:09:59.203Z,2.12
2018-09-29T13:12:27.533Z,3.83
2018-09-29T13:14:55.651Z,1.75
2018-09-29T13:17:24.022Z,2.58
2018-09-29T13:19:52.239Z,2.15
2018-09-29T13:22:20.427Z,3.02
2018-09-29T13:24:48.512Z,2.77
2018-09-29T13:27:17.203Z,3.15
2018-09-29T13:29:46.007Z,2.15
2018-09-29T13:32:14.606Z,3.95
2018-09-29T13:34:42.779Z,4.10
2018-09-29T13:37:11.068Z,3.02
2018-09-29T13:39:39.188Z,2.05
2018-09-29T13:42:07.380Z,1.65
2018-09-29T13:44:35.622Z,2.50
2018-09-29T13:47:03.941Z,1.40
2018-09-29T13:49:32.031Z,3.35
2018-09-29T13:52:00.116Z,4.15
2018-09-29T13:54:28.242Z,1.95
2018-09-29T13:56:56.487Z,3.12
2018-09-29T13:59:25.519Z,3.00
2018-09-29T14:01:53.827Z,3.22
2018-09-29T14:04:21.896Z,2.90
2018-09-29T14:06:50.076Z,2.00
2018-09-29T14:09:18.154Z,2.30
2018-09-29T14:11:46.392Z,2.87
2018-09-29T14:14:14.479Z,5.70
2018-09-29T14:16:42.636Z,5.97
2018-09-29T14:19:11.255Z,2.10
2018-09-29T14:21:39.423Z,3.15
2018-09-29T14:24:08.556Z,3.37
2018-09-29T14:26:36.664Z,2.58
2018-09-29T14:29:04.817Z,2.98
2018-09-29T14:31:32.963Z,1.67
2018-09-29T14:34:01.633Z,2.50
2018-09-29T14:36:29.740Z,3.12
2018-09-29T14:38:57.943Z,3.98
2018-09-29T14:41:26.648Z,1.55
2018-09-29T14:43:54.841Z,2.42
2018-09-29T14:46:22.948Z,2.45
2018-09-29T14:48:51.283Z,2.70
2018-09-29T14:51:19.355Z,4.42
2018-09-29T14:53:48.679Z,2.50
2018-09-29T14:56:16.860Z,1.95
2018-09-29T14:58:45.211Z,2.98
2018-09-29T15:01:13.291Z,2.40
2018-09-29T15:03:41.435Z,2.42
2018-09-29T15:06:10.248Z,3.58
2018-09-29T15:08:38.355Z,3.05
2018-09-29T15:11:07.176Z,2.72
2018-09-29T15:13:35.581Z,2.12
2018-09-29T15:16:03.669Z,3.83
2018-09-29T15:18:31.934Z,2.10
2018-09-29T15:21:00.007Z,4.33
2018-09-29T15:23:28.864Z,2.25
2018-09-29T15:25:56.958Z,3.15
2018-09-29T15:28:25.595Z,3.00
2018-09-29T15:30:53.944Z,2.72
2018-09-29T15:33:22.186Z,4.25
2018-09-29T15:35:50.935Z,3.10
2018-09-29T15:38:19.035Z,2.77
2018-09-29T15:40:47.167Z,3.22
2018-09-29T15:43:15.359Z,4.20
2018-09-29T15:45:43.679Z,3.58
2018-09-29T15:48:11.827Z,4.90
2018-09-29T15:50:39.970Z,4.08
2018-09-29T15:53:08.195Z,5.58
2018-09-29T15:55:36.966Z,3.75
2018-09-29T15:58:05.048Z,3.12
2018-09-29T16:00:33.176Z,3.45
2018-09-29T16:03:01.392Z,3.10
2018-09-29T16:05:29.539Z,3.77
2018-09-29T16:07:57.758Z,3.95
2018-09-29T16:10:25.887Z,3.42
2018-09-29T16:12:54.148Z,3.02
2018-09-29T16:15:22.314Z,1.85
2018-09-29T16:17:50.664Z,2.40
2018-09-29T16:20:18.780Z,2.60
2018-09-29T16:22:46.956Z,4.67
2018-09-29T16:25:15.783Z,4.37
2018-09-29T16:27:43.873Z,4.03
2018-09-29T16:30:12.020Z,3.08
2018-09-29T16:32:40.112Z,5.25
2018-09-29T16:35:08.819Z,4.12
2018-09-29T16:37:37.077Z,3.98
2018-09-29T16:40:05.207Z,4.12
2018-09-29T16:42:33.880Z,3.75
2018-09-29T16:45:02.453Z,3.55
2018-09-29T16:47:30.714Z,4.58
2018-09-29T16:49:59.168Z,6.03
2018-09-29T16:52:27.281Z,5.03
2018-09-29T16:54:55.407Z,4.83
2018-09-29T16:57:23.795Z,24.55
2018-09-29T16:59:52.083Z,77.42
2018-09-29T17:02:20.160Z,166.40
2018-09-29T17:04:48.603Z,123.82
2018-09-29T17:07:16.525Z,68.22
2018-09-29T17:09:44.684Z,45.90
2018-09-29T17:12:13.063Z,38.75
2018-09-29T17:14:41.163Z,39.13
2018-09-29T17:17:09.788Z,24.82
2018-09-29T17:19:37.915Z,25.40
2018-09-29T17:22:06.672Z,19.55
2018-09-29T17:24:34.779Z,17.25
2018-09-29T17:27:02.981Z,15.78
2018-09-29T17:29:31.122Z,13.50
2018-09-29T17:31:59.246Z,10.43
2018-09-29T17:34:27.535Z,10.78
2018-09-29T17:36:55.950Z,9.38
2018-09-29T17:39:24.031Z,8.83
2018-09-29T17:41:52.149Z,6.62
2018-09-29T17:44:20.351Z,6.05
2018-09-29T17:46:48.464Z,7.12
2018-09-29T17:49:21.067Z,6.78
2018-09-29T17:51:49.180Z,6.60
2018-09-29T17:54:17.313Z,5.87
2018-09-29T17:56:45.612Z,5.53
2018-09-29T17:59:13.879Z,8.95
2018-09-29T18:01:42.059Z,8.70
2018-09-29T18:04:10.327Z,9.08
2018-09-29T18:06:38.528Z,11.05
2018-09-29T18:09:07.920Z,7.05
2018-09-29T18:11:36.028Z,7.12
2018-09-29T18:14:04.149Z,7.12
2018-09-29T18:16:32.313Z,3.98
2018-09-29T18:19:00.628Z,5.17
2018-09-29T18:21:28.786Z,7.45
2018-09-29T18:23:57.492Z,5.87
2018-09-29T18:26:25.756Z,9.13
2018-09-29T18:28:53.823Z,8.48
2018-09-29T18:31:21.968Z,6.92
2018-09-29T18:33:50.125Z,11.18
2018-09-29T18:36:18.786Z,9.30
2018-09-29T18:38:47.071Z,9.28
2018-09-29T18:41:15.272Z,6.33
2018-09-29T18:43:43.440Z,6.67
2018-09-29T18:46:11.524Z,6.33
2018-09-29T18:48:39.808Z,8.78
2018-09-29T18:51:08.083Z,6.95
2018-09-29T18:53:36.200Z,6.08
2018-09-29T18:56:04.308Z,5.10
2018-09-29T18:58:33.048Z,5.95
2018-09-29T19:01:01.262Z,6.42
2018-09-29T19:03:29.354Z,7.40
2018-09-29T19:05:57.486Z,6.20
2018-09-29T19:08:25.849Z,6.65
2018-09-29T19:10:54.008Z,7.20
2018-09-29T19:13:22.099Z,9.68
2018-09-29T19:15:50.492Z,5.90
2018-09-29T19:18:18.579Z,6.33
2018-09-29T19:20:46.836Z,5.83
2018-09-29T19:23:14.919Z,6.37
2018-09-29T19:25:43.124Z,6.05
2018-09-29T19:28:11.337Z,8.73
2018-09-29T19:30:39.408Z,7.58
2018-09-29T19:33:07.504Z,7.50
2018-09-29T19:35:35.731Z,7.85
2018-09-29T19:38:04.047Z,8.15
2018-09-29T19:40:32.175Z,8.33
2018-09-29T19:43:00.435Z,8.87
2018-09-29T19:45:28.859Z,9.93
2018-09-29T19:47:56.957Z,10.67
2018-09-29T19:50:25.171Z,10.05
2018-09-29T19:52:53.339Z,9.73
2018-09-29T19:55:21.425Z,10.37
2018-09-29T19:57:49.722Z,10.67
2018-09-29T20:00:17.832Z,9.98
2018-09-29T20:02:46.079Z,9.00
2018-09-29T20:05:14.793Z,8.75
2018-09-29T20:07:42.997Z,7.67
2018-09-29T20:10:11.182Z,15.33
2018-09-29T20:12:39.256Z,17.17
2018-09-29T20:15:08.314Z,7.30
2018-09-29T20:17:36.524Z,7.70
2018-09-29T20:20:04.766Z,5.70
2018-09-29T20:22:32.832Z,6.90
2018-09-29T20:25:00.968Z,7.23
2018-09-29T20:27:29.062Z,9.30
2018-09-29T20:29:57.242Z,8.45
2018-09-29T20:32:25.505Z,9.57
2018-09-29T20:34:54.209Z,8.40
2018-09-29T20:37:22.580Z,8.90
2018-09-29T20:39:51.268Z,12.73
2018-09-29T20:42:19.496Z,12.07
2018-09-29T20:44:47.591Z,11.27
2018-09-29T20:47:15.695Z,9.87
2018-09-29T20:49:44.007Z,9.80
2018-09-29T20:52:12.171Z,7.80
2018-09-29T20:54:40.271Z,8.33
2018-09-29T20:57:08.403Z,8.47
2018-09-29T20:59:37.263Z,26.40
2018-09-29T21:02:05.392Z,25.43
2018-09-29T21:04:33.477Z,22.30
2018-09-29T21:07:01.580Z,9.67
2018-09-29T21:09:29.875Z,8.53
2018-09-29T21:11:57.964Z,9.83
2018-09-29T21:14:26.155Z,10.23
2018-09-29T21:16:54.440Z,8.07
2018-09-29T21:19:22.605Z,8.20
2018-09-29T21:21:50.699Z,10.87
2018-09-29T21:24:18.766Z,8.43
2018-09-29T21:26:46.918Z,8.93
2018-09-29T21:29:15.114Z,7.50
2018-09-29T21:31:43.276Z,8.83
2018-09-29T21:34:11.460Z,10.03
2018-09-29T21:36:39.586Z,16.00
2018-09-29T21:39:08.056Z,7.23
2018-09-29T21:41:36.128Z,7.87
2018-09-29T21:44:04.248Z,7.20
2018-09-29T21:46:32.463Z,7.47
2018-09-29T21:49:01.241Z,11.67
2018-09-29T21:51:29.488Z,10.07
2018-09-29T21:53:57.696Z,7.97
2018-09-29T21:56:26.723Z,9.20
2018-09-29T21:58:55.028Z,9.57
2018-09-29T22:01:28.515Z,7.80
2018-09-29T22:03:57.240Z,6.70
2018-09-29T22:06:25.796Z,7.57
2018-09-29T22:08:54.756Z,6.87
2018-09-29T22:11:22.910Z,11.73
2018-09-29T22:13:51.208Z,10.43
2018-09-29T22:16:19.595Z,9.90
2018-09-29T22:18:47.754Z,10.10
2018-09-29T22:21:16.776Z,11.10
2018-09-29T22:23:44.892Z,8.30
2018-09-29T22:26:13.534Z,10.30
2018-09-29T22:28:41.831Z,11.27
2018-09-29T22:31:09.944Z,12.20
2018-09-29T22:33:38.076Z,9.27
2018-09-29T22:36:05.853Z,10.40
2018-09-29T22:38:34.011Z,9.23
2018-09-29T22:41:02.116Z,10.83
2018-09-29T22:43:30.189Z,10.27
2018-09-29T22:45:58.248Z,6.80
2018-09-29T22:48:26.445Z,7.53
2018-09-29T22:50:55.325Z,7.23
2018-09-29T22:53:23.495Z,5.80
2018-09-29T22:55:51.647Z,6.80
2018-09-29T22:58:20.458Z,5.00
2018-09-29T23:00:48.592Z,7.53
2018-09-29T23:03:16.868Z,5.93
2018-09-29T23:05:45.348Z,8.13
2018-09-29T23:08:13.440Z,4.20
2018-09-29T23:10:41.695Z,4.93
2018-09-29T23:13:09.903Z,6.60
2018-09-29T23:15:38.599Z,5.17
2018-09-29T23:18:06.807Z,7.67
2018-09-29T23:20:34.944Z,3.40
2018-09-29T23:23:03.295Z,4.80
2018-09-29T23:25:31.362Z,5.10
2018-09-29T23:27:59.475Z,4.77
2018-09-29T23:30:27.648Z,5.70
2018-09-29T23:32:55.736Z,5.80
2018-09-29T23:35:24.646Z,4.23
2018-09-29T23:37:52.972Z,5.03
2018-09-29T23:40:21.051Z,6.77
2018-09-29T23:42:49.168Z,6.23
2018-09-29T23:45:17.253Z,5.53
2018-09-29T23:47:45.544Z,8.67
2018-09-29T23:50:13.931Z,5.57
2018-09-29T23:52:42.040Z,7.57
2018-09-29T23:55:10.135Z,10.47
2018-09-29T23:57:38.536Z,7.83
